This is the latest recevied weather packets stored in our database for station/object DG1UDO-13. If no packets are shown the sender has not sent any weather packets the latest 10 day(s).
| Time | Temp. | Humidity | Pressure | Rain* | Wind** | Luminosity | Snow |
|---|---|---|---|---|---|---|---|
| 1777602901 | 6.67° C | 84% | 1030.2 hPa | - | - | - | - |
| 1777601101 | 6.67° C | 80% | 1030.2 hPa | - | - | - | - |
| 1777599301 | 7.22° C | 80% | 1030.3 hPa | - | - | - | - |
| 1777597501 | 8.33° C | 76% | 1030.4 hPa | - | - | - | - |
| 1777595701 | 9.44° C | 72% | 1030.3 hPa | - | - | - | - |
| 1777593901 | 9.44° C | 73% | 1030.4 hPa | - | - | - | - |
| 1777592101 | 8.89° C | 72% | 1030.5 hPa | - | - | - | - |
| 1777590301 | 10.56° C | 69% | 1030.4 hPa | - | - | - | - |
| 1777588501 | 10° C | 74% | 1030.5 hPa | - | - | - | - |
| 1777586701 | 9.44° C | 75% | 1030.5 hPa | - | - | - | - |
| 1777584901 | 10° C | 70% | 1030.4 hPa | - | - | - | - |
| 1777583101 | 11.67° C | 66% | 1030.4 hPa | - | - | - | - |
| 1777581301 | 12.78° C | 61% | 1030.5 hPa | - | - | - | - |
| 1777579501 | 13.33° C | 57% | 1030.4 hPa | - | - | - | - |
| 1777577701 | 15° C | 51% | 1030.1 hPa | - | - | - | - |
| 1777575901 | 15.56° C | 47% | 1029.9 hPa | - | - | - | - |
| 1777574101 | 17.78° C | 41% | 1029.8 hPa | - | - | - | - |
| 1777572301 | 18.33° C | 38% | 1029.7 hPa | - | - | - | - |
| 1777570501 | 18.89° C | 36% | 1029.8 hPa | - | - | - | - |
| 1777568701 | 18.89° C | 35% | 1030.1 hPa | - | - | - | - |
| 1777566901 | 19.44° C | 33% | 1030.2 hPa | - | - | - | - |
| 1777565101 | 19.44° C | 33% | 1030.4 hPa | - | - | - | - |
| 1777563301 | 18.89° C | 34% | 1030.5 hPa | - | - | - | - |
| 1777561501 | 18.33° C | 35% | 1030.9 hPa | - | - | - | - |
| 1777559701 | 19.44° C | 34% | 1031 hPa | - | - | - | - |
* Rain since midnight (hover to see other rain measurements)
** Current wind speed in m/s (hover to see current wind gust speed)